createdAt,value
2022-11-16T00:02:22.498Z,99451.69
2022-11-16T00:04:50.333Z,99449.69
2022-11-16T00:07:18.086Z,99436.94
2022-11-16T00:09:46.113Z,99439.41
2022-11-16T00:12:13.643Z,99436.50
2022-11-16T00:14:42.964Z,99433.94
2022-11-16T00:17:10.579Z,99429.63
2022-11-16T00:19:38.436Z,99435.97
2022-11-16T00:22:06.238Z,99424.00
2022-11-16T00:24:34.711Z,99423.66
2022-11-16T00:27:02.135Z,99430.16
2022-11-16T00:29:30.027Z,99417.78
2022-11-16T00:31:59.051Z,99411.44
2022-11-16T00:34:27.080Z,99409.94
2022-11-16T00:36:54.666Z,99400.06
2022-11-16T00:39:22.508Z,99406.78
2022-11-16T00:41:50.672Z,99401.91
2022-11-16T00:44:18.554Z,99397.41
2022-11-16T00:46:46.147Z,99398.59
2022-11-16T00:49:15.776Z,99391.94
2022-11-16T00:51:43.212Z,99399.75
2022-11-16T00:54:11.755Z,99399.06
2022-11-16T00:56:39.433Z,99402.25
2022-11-16T00:59:07.667Z,99401.28
2022-11-16T01:01:35.245Z,99401.25
2022-11-16T01:04:03.363Z,99412.13
2022-11-16T01:06:32.750Z,99413.09
2022-11-16T01:09:03.545Z,99411.63
2022-11-16T01:11:31.281Z,99411.44
2022-11-16T01:13:59.472Z,99415.97
2022-11-16T01:16:26.895Z,99409.28
2022-11-16T01:18:55.645Z,99403.59
2022-11-16T01:21:23.726Z,99402.44
2022-11-16T01:23:53.357Z,99393.22
2022-11-16T01:26:20.992Z,99379.53
2022-11-16T01:28:49.219Z,99377.84
2022-11-16T01:31:16.634Z,99380.19
2022-11-16T01:33:44.466Z,99375.19
2022-11-16T01:36:13.600Z,99378.16
2022-11-16T01:38:42.648Z,99375.19
2022-11-16T01:41:13.956Z,99375.66
2022-11-16T01:43:57.232Z,99384.50
2022-11-16T01:46:25.692Z,99384.22
2022-11-16T01:49:00.711Z,99381.03
2022-11-16T01:51:29.083Z,99397.06
2022-11-16T01:53:59.268Z,99391.22
2022-11-16T01:56:31.729Z,99386.88
2022-11-16T01:58:59.735Z,99383.53
2022-11-16T02:01:27.386Z,99378.34
2022-11-16T02:03:55.238Z,99376.34
2022-11-16T02:06:32.949Z,99373.16
2022-11-16T02:09:20.054Z,99371.81
2022-11-16T02:12:17.561Z,99368.59
2022-11-16T02:15:03.237Z,99364.25
2022-11-16T02:17:39.768Z,99348.72
2022-11-16T02:20:36.288Z,99349.50
2022-11-16T02:23:45.287Z,99340.94
2022-11-16T02:26:32.332Z,99334.00
2022-11-16T02:29:14.368Z,99332.97
2022-11-16T02:31:49.678Z,99331.03
2022-11-16T02:34:19.482Z,99333.69
2022-11-16T02:36:50.201Z,99331.06
2022-11-16T02:39:21.734Z,99334.44
2022-11-16T02:41:50.993Z,99329.16
2022-11-16T02:44:23.126Z,99334.53
2022-11-16T02:47:01.890Z,99332.34
2022-11-16T02:49:31.331Z,99326.88
2022-11-16T02:51:59.735Z,99329.19
2022-11-16T02:54:30.259Z,99329.84
2022-11-16T02:57:24.123Z,99327.09
2022-11-16T02:59:56.692Z,99323.44
2022-11-16T03:02:29.810Z,99325.59
2022-11-16T03:05:01.821Z,99329.44
2022-11-16T03:07:32.182Z,99327.59
2022-11-16T03:10:00.738Z,99318.78
2022-11-16T03:12:32.723Z,99315.91
2022-11-16T03:15:05.185Z,99321.06
2022-11-16T03:17:38.174Z,99312.34
2022-11-16T03:20:07.582Z,99324.03
2022-11-16T03:22:39.510Z,99327.88
2022-11-16T03:25:09.781Z,99322.63
2022-11-16T03:27:41.614Z,99326.66
2022-11-16T03:30:13.089Z,99331.66
2022-11-16T03:32:45.990Z,99334.53
2022-11-16T03:35:19.553Z,99332.41
2022-11-16T03:37:49.216Z,99328.53
2022-11-16T03:40:18.411Z,99326.41
2022-11-16T03:42:47.768Z,99319.06
2022-11-16T03:45:18.931Z,99311.69
2022-11-16T03:47:47.156Z,99310.66
2022-11-16T03:50:15.086Z,99306.44
2022-11-16T03:52:42.967Z,99305.91
2022-11-16T03:55:10.319Z,99306.13
2022-11-16T03:57:38.095Z,99300.19
2022-11-16T04:00:07.210Z,99301.44
2022-11-16T04:02:36.327Z,99299.59
2022-11-16T04:05:03.966Z,99294.44
2022-11-16T04:07:31.747Z,99287.38
2022-11-16T04:09:59.270Z,99284.34
2022-11-16T04:12:27.776Z,99287.66
2022-11-16T04:14:55.247Z,99294.94
2022-11-16T04:17:25.130Z,99297.63
2022-11-16T04:19:57.943Z,99303.53
2022-11-16T04:22:30.946Z,99304.53
2022-11-16T04:25:05.301Z,99303.38
2022-11-16T04:27:33.139Z,99306.97
2022-11-16T04:30:02.227Z,99297.47
2022-11-16T04:32:30.148Z,99298.38
2022-11-16T04:34:59.285Z,99295.53
2022-11-16T04:37:26.923Z,99292.72
2022-11-16T04:39:54.271Z,99294.22
2022-11-16T04:42:22.280Z,99294.69
2022-11-16T04:44:49.690Z,99292.19
2022-11-16T04:47:17.518Z,99296.53
2022-11-16T04:49:44.917Z,99292.41
2022-11-16T04:52:14.094Z,99293.91
2022-11-16T04:54:41.534Z,99291.75
2022-11-16T04:57:09.569Z,99284.03
2022-11-16T04:59:37.134Z,99286.38
2022-11-16T05:02:05.244Z,99291.72
2022-11-16T05:04:32.763Z,99287.69
2022-11-16T05:07:00.778Z,99283.50
2022-11-16T05:09:29.689Z,99282.19
2022-11-16T05:11:57.798Z,99276.88
2022-11-16T05:14:25.463Z,99274.69
2022-11-16T05:16:53.355Z,99277.88
2022-11-16T05:19:20.801Z,99285.88
2022-11-16T05:21:48.837Z,99278.53
2022-11-16T05:24:16.156Z,99273.03
2022-11-16T05:26:45.659Z,99276.69
2022-11-16T05:29:13.101Z,99274.03
2022-11-16T05:31:41.125Z,99275.19
2022-11-16T05:34:09.287Z,99283.69
2022-11-16T05:36:37.253Z,99277.66
2022-11-16T05:39:05.446Z,99276.38
2022-11-16T05:41:33.905Z,99273.22
2022-11-16T05:44:02.719Z,99276.38
2022-11-16T05:46:30.986Z,99271.03
2022-11-16T05:48:58.699Z,99267.66
2022-11-16T05:51:26.536Z,99274.34
2022-11-16T05:53:53.923Z,99276.06
2022-11-16T05:56:21.893Z,99262.13
2022-11-16T05:58:49.703Z,99263.66
2022-11-16T06:01:19.070Z,99260.66
2022-11-16T06:03:46.509Z,99260.16
2022-11-16T06:06:14.575Z,99263.81
2022-11-16T06:08:42.444Z,99258.81
2022-11-16T06:11:13.071Z,99263.19
2022-11-16T06:13:40.603Z,99258.38
2022-11-16T06:16:08.967Z,99261.88
2022-11-16T06:18:40.248Z,99258.84
2022-11-16T06:21:08.853Z,99257.34
2022-11-16T06:23:36.217Z,99251.16
2022-11-16T06:26:05.161Z,99252.00
2022-11-16T06:28:33.464Z,99244.69
2022-11-16T06:31:02.238Z,99249.84
2022-11-16T06:33:33.316Z,99242.34
2022-11-16T06:36:03.114Z,99242.50
2022-11-16T06:38:30.701Z,99240.34
2022-11-16T06:40:59.072Z,99243.69
2022-11-16T06:43:27.059Z,99239.88
2022-11-16T06:45:57.066Z,99243.34
2022-11-16T06:48:24.737Z,99239.19
2022-11-16T06:50:53.091Z,99239.69
2022-11-16T06:53:27.545Z,99236.88
2022-11-16T06:56:01.319Z,99241.88
2022-11-16T06:58:29.855Z,99243.00
2022-11-16T07:00:57.779Z,99244.84
2022-11-16T07:03:25.560Z,99239.63
2022-11-16T07:05:53.377Z,99245.09
2022-11-16T07:08:22.183Z,99237.97
2022-11-16T07:10:50.242Z,99234.97
2022-11-16T07:13:17.684Z,99245.03
2022-11-16T07:15:45.517Z,99241.19
2022-11-16T07:18:12.943Z,99243.34
2022-11-16T07:20:40.678Z,99246.19
2022-11-16T07:23:12.903Z,99245.00
2022-11-16T07:25:43.897Z,99243.03
2022-11-16T07:28:11.250Z,99234.19
2022-11-16T07:30:39.107Z,99227.03
2022-11-16T07:33:06.473Z,99229.16
2022-11-16T07:35:35.018Z,99225.00
2022-11-16T07:38:03.179Z,99235.66
2022-11-16T07:40:31.106Z,99233.34
2022-11-16T07:43:00.045Z,99226.00
2022-11-16T07:45:27.865Z,99242.34
2022-11-16T07:47:55.330Z,99237.97
2022-11-16T07:50:23.615Z,99242.00
2022-11-16T07:52:50.890Z,99236.53
2022-11-16T07:55:18.774Z,99235.53
2022-11-16T07:57:51.912Z,99238.00
2022-11-16T08:00:22.760Z,99243.53
2022-11-16T08:02:50.072Z,99244.19
2022-11-16T08:05:17.886Z,99249.66
2022-11-16T08:07:45.337Z,99250.84
2022-11-16T08:10:13.235Z,99249.50
2022-11-16T08:12:40.732Z,99247.00
2022-11-16T08:15:09.210Z,99253.00
2022-11-16T08:17:38.063Z,99252.47
2022-11-16T08:20:07.047Z,99254.06
2022-11-16T08:22:34.430Z,99255.25
2022-11-16T08:25:02.362Z,99252.69
2022-11-16T08:27:30.939Z,99252.66
2022-11-16T08:29:59.352Z,99265.22
2022-11-16T08:32:26.753Z,99265.22
2022-11-16T08:34:56.270Z,99269.09
2022-11-16T08:37:26.428Z,99269.09
2022-11-16T08:39:54.576Z,99274.53
2022-11-16T08:42:22.098Z,99269.81
2022-11-16T08:44:50.206Z,99262.19
2022-11-16T08:47:18.020Z,99264.00
2022-11-16T08:49:49.857Z,99262.16
2022-11-16T08:52:18.980Z,99266.31
2022-11-16T08:54:46.878Z,99273.16
2022-11-16T08:57:14.303Z,99272.28
2022-11-16T08:59:42.115Z,99278.13
2022-11-16T09:02:09.964Z,99275.00
2022-11-16T09:04:37.938Z,99271.00
2022-11-16T09:07:08.330Z,99282.78
2022-11-16T09:09:37.974Z,99281.13
2022-11-16T09:12:05.925Z,99278.28
2022-11-16T09:14:33.675Z,99284.94
2022-11-16T09:17:01.081Z,99289.28
2022-11-16T09:19:28.815Z,99281.44
2022-11-16T09:21:56.241Z,99287.59
2022-11-16T09:24:24.041Z,99280.91
2022-11-16T09:26:52.770Z,99286.56
2022-11-16T09:29:20.524Z,99284.25
2022-11-16T09:31:47.819Z,99283.06
2022-11-16T09:34:15.673Z,99275.78
2022-11-16T09:36:43.323Z,99272.75
2022-11-16T09:39:30.540Z,99272.94
2022-11-16T09:42:16.651Z,99257.06
2022-11-16T09:44:58.923Z,99254.06
2022-11-16T09:47:44.728Z,99250.09
2022-11-16T09:50:31.707Z,99245.94
2022-11-16T09:53:13.302Z,99247.44
2022-11-16T09:55:47.537Z,99237.75
2022-11-16T09:58:23.079Z,99236.63
2022-11-16T10:00:59.029Z,99237.84
2022-11-16T10:03:28.965Z,99228.78
2022-11-16T10:06:01.586Z,99238.00
2022-11-16T10:08:41.354Z,99234.16
2022-11-16T10:11:31.558Z,99230.31
2022-11-16T10:14:17.191Z,99227.25
2022-11-16T10:16:49.903Z,99224.81
2022-11-16T10:19:27.410Z,99220.63
2022-11-16T10:22:01.959Z,99224.63
2022-11-16T10:24:36.176Z,99214.81
2022-11-16T10:27:27.757Z,99219.81
2022-11-16T10:30:07.378Z,99220.00
2022-11-16T10:32:39.940Z,99212.00
2022-11-16T10:35:16.153Z,99212.81
2022-11-16T10:37:48.230Z,99213.47
2022-11-16T10:40:21.755Z,99223.47
2022-11-16T10:42:58.996Z,99218.09
2022-11-16T10:45:35.288Z,99217.97
2022-11-16T10:48:14.814Z,99211.78
2022-11-16T10:50:45.467Z,99216.81
2022-11-16T10:53:14.223Z,99212.97
2022-11-16T10:55:42.158Z,99213.81
2022-11-16T10:58:10.161Z,99211.13
2022-11-16T11:00:43.685Z,99202.66
2022-11-16T11:03:12.690Z,99199.63
2022-11-16T11:05:49.531Z,99200.28
2022-11-16T11:08:26.867Z,99204.09
2022-11-16T11:11:03.095Z,99203.97
2022-11-16T11:13:35.818Z,99200.63
2022-11-16T11:16:18.039Z,99207.16
2022-11-16T11:18:47.523Z,99205.97
2022-11-16T11:21:19.154Z,99199.44
2022-11-16T11:23:49.295Z,99207.25
2022-11-16T11:26:34.684Z,99206.63
2022-11-16T11:29:15.834Z,99211.78
2022-11-16T11:31:49.119Z,99201.94
2022-11-16T11:34:21.833Z,99197.31
2022-11-16T11:36:52.973Z,99198.00
2022-11-16T11:39:39.281Z,99186.81
2022-11-16T11:42:20.928Z,99183.13
2022-11-16T11:44:56.487Z,99193.81
2022-11-16T11:50:45.364Z,99185.47
2022-11-16T11:53:24.125Z,99174.41
2022-11-16T11:55:55.197Z,99174.72
2022-11-16T11:58:26.814Z,99171.06
2022-11-16T12:01:09.213Z,99164.25
2022-11-16T12:03:50.158Z,99164.72
2022-11-16T12:06:30.908Z,99160.84
2022-11-16T12:09:13.000Z,99152.84
2022-11-16T12:11:56.055Z,99148.16
2022-11-16T12:14:35.153Z,99150.19
2022-11-16T12:17:12.334Z,99146.88
2022-11-16T12:19:55.121Z,99152.06
2022-11-16T12:22:48.709Z,99157.53
2022-11-16T12:25:25.320Z,99155.03
2022-11-16T12:28:11.296Z,99153.31
2022-11-16T12:30:49.666Z,99149.47
2022-11-16T12:33:29.506Z,99153.22
2022-11-16T12:36:02.174Z,99152.38
2022-11-16T12:38:43.482Z,99146.56
2022-11-16T12:41:40.975Z,99143.91
2022-11-16T12:44:11.043Z,99141.63
2022-11-16T12:46:50.381Z,99138.44
2022-11-16T12:49:37.479Z,99141.59
2022-11-16T12:52:22.205Z,99141.63
2022-11-16T12:55:29.577Z,99147.63
2022-11-16T12:58:11.029Z,99152.44
2022-11-16T13:00:51.324Z,99154.63
2022-11-16T13:03:23.795Z,99147.88
2022-11-16T13:05:59.416Z,99149.25
2022-11-16T13:08:40.955Z,99147.41
2022-11-16T13:11:15.846Z,99155.41
2022-11-16T13:13:49.603Z,99154.22
2022-11-16T13:16:22.301Z,99157.38
2022-11-16T13:18:51.412Z,99157.25
2022-11-16T13:21:28.449Z,99158.22
2022-11-16T13:24:16.712Z,99160.03
2022-11-16T13:26:54.625Z,99172.03
2022-11-16T13:29:32.075Z,99169.97
2022-11-16T13:32:09.003Z,99172.66
2022-11-16T13:34:39.516Z,99179.13
2022-11-16T13:37:36.960Z,99173.13
2022-11-16T13:40:29.903Z,99169.44
2022-11-16T13:43:17.144Z,99168.22
2022-11-16T13:45:54.428Z,99166.19
2022-11-16T13:48:25.653Z,99163.34
2022-11-16T13:50:57.118Z,99169.72
2022-11-16T13:54:25.153Z,99157.84
2022-11-16T13:56:25.614Z,99165.56
2022-11-16T13:58:58.513Z,99156.63
2022-11-16T14:01:46.346Z,99156.16
2022-11-16T14:04:34.404Z,99160.00
2022-11-16T14:07:02.003Z,99158.84
2022-11-16T14:09:42.596Z,99156.84
2022-11-16T14:12:55.931Z,99154.31
2022-11-16T14:15:28.395Z,99154.88
2022-11-16T14:17:59.299Z,99148.88
2022-11-16T14:20:49.870Z,99150.19
2022-11-16T14:23:34.969Z,99146.63
2022-11-16T14:26:12.927Z,99142.09
2022-11-16T14:28:50.422Z,99148.06
2022-11-16T14:31:24.494Z,99141.09
2022-11-16T14:33:53.860Z,99140.63
2022-11-16T14:36:37.805Z,99137.97
2022-11-16T14:39:33.588Z,99135.13
2022-11-16T14:42:04.535Z,99136.47
2022-11-16T14:44:37.892Z,99133.78
2022-11-16T14:47:20.912Z,99135.28
2022-11-16T14:49:48.984Z,99137.13
2022-11-16T14:52:20.784Z,99139.47
2022-11-16T14:54:53.644Z,99131.28
2022-11-16T14:57:23.826Z,99131.13
2022-11-16T15:00:08.754Z,99126.59
2022-11-16T15:02:39.817Z,99132.25
2022-11-16T15:05:07.991Z,99132.44
2022-11-16T15:07:36.191Z,99131.69
2022-11-16T15:10:14.235Z,99139.75
2022-11-16T15:12:42.674Z,99137.28
2022-11-16T15:15:15.898Z,99129.72
2022-11-16T15:17:51.553Z,99127.53
2022-11-16T15:20:21.284Z,99135.25
2022-11-16T15:22:52.015Z,99136.94
2022-11-16T15:25:30.497Z,99133.81
2022-11-16T15:27:59.342Z,99138.31
2022-11-16T15:30:31.110Z,99127.09
2022-11-16T15:33:02.958Z,99120.28
2022-11-16T15:35:32.591Z,99121.63
2022-11-16T15:38:16.903Z,99116.59
2022-11-16T15:40:50.369Z,99121.09
2022-11-16T15:43:18.997Z,99113.44
2022-11-16T15:45:47.529Z,99119.25
2022-11-16T15:48:20.935Z,99124.50
2022-11-16T15:51:05.281Z,99127.16
2022-11-16T15:53:38.532Z,99122.19
2022-11-16T15:56:09.265Z,99117.81
2022-11-16T15:58:39.334Z,99114.66
2022-11-16T16:01:07.580Z,99115.91
2022-11-16T16:03:38.039Z,99114.78
2022-11-16T16:06:06.516Z,99119.59
2022-11-16T16:08:36.291Z,99124.25
2022-11-16T16:11:10.326Z,99126.09
2022-11-16T16:13:40.340Z,99126.28
2022-11-16T16:16:26.669Z,99125.78
2022-11-16T16:19:01.606Z,99121.47
2022-11-16T16:21:42.710Z,99123.91
2022-11-16T16:24:30.336Z,99129.25
2022-11-16T16:26:58.184Z,99132.09
2022-11-16T16:29:27.468Z,99134.59
2022-11-16T16:31:55.659Z,99126.09
2022-11-16T16:34:25.161Z,99129.25
2022-11-16T16:36:52.623Z,99127.25
2022-11-16T16:39:20.547Z,99129.91
2022-11-16T16:41:48.110Z,99126.94
2022-11-16T16:44:16.581Z,99127.06
2022-11-16T16:46:44.217Z,99119.75
2022-11-16T16:49:12.407Z,99124.09
2022-11-16T16:51:41.260Z,99126.75
2022-11-16T16:54:13.517Z,99124.25
2022-11-16T16:56:41.040Z,99119.59
2022-11-16T16:59:09.373Z,99126.59
2022-11-16T17:01:36.854Z,99118.63
2022-11-16T17:04:04.946Z,99123.97
2022-11-16T17:06:32.447Z,99129.78
2022-11-16T17:09:01.904Z,99117.97
2022-11-16T17:11:29.416Z,99116.28
2022-11-16T17:13:57.281Z,99117.28
2022-11-16T17:16:25.210Z,99131.28
2022-11-16T17:18:54.948Z,99127.81
2022-11-16T17:21:22.492Z,99126.47
2022-11-16T17:23:50.541Z,99124.47
2022-11-16T17:26:19.644Z,99120.44
2022-11-16T17:28:47.866Z,99118.44
2022-11-16T17:31:15.624Z,99124.78
2022-11-16T17:33:46.794Z,99132.66
2022-11-16T17:36:14.701Z,99130.44
2022-11-16T17:38:42.827Z,99132.44
2022-11-16T17:41:11.875Z,99139.28
2022-11-16T17:44:06.247Z,99134.75
2022-11-16T17:46:34.004Z,99136.59
2022-11-16T17:49:02.097Z,99141.94
2022-11-16T17:51:29.808Z,99138.41
2022-11-16T17:53:57.814Z,99143.28
2022-11-16T17:56:26.213Z,99148.97
2022-11-16T17:58:54.615Z,99143.97
2022-11-16T18:01:23.851Z,99150.31
2022-11-16T18:03:51.904Z,99151.59
2022-11-16T18:06:21.181Z,99144.59
2022-11-16T18:08:49.711Z,99142.56
2022-11-16T18:11:18.748Z,99138.53
2022-11-16T18:13:48.029Z,99139.84
2022-11-16T18:16:17.060Z,99138.88
2022-11-16T18:18:48.175Z,99148.50
2022-11-16T18:21:20.799Z,99145.16
2022-11-16T18:23:49.141Z,99140.81
2022-11-16T18:26:18.765Z,99149.75
2022-11-16T18:28:46.979Z,99147.50
2022-11-16T18:31:16.454Z,99142.84
2022-11-16T18:33:46.520Z,99135.94
2022-11-16T18:36:14.021Z,99133.09
2022-11-16T18:38:41.955Z,99133.19
2022-11-16T18:41:16.967Z,99136.94
2022-11-16T18:43:48.858Z,99135.06
2022-11-16T18:46:16.507Z,99126.84
2022-11-16T18:48:44.541Z,99126.00
2022-11-16T18:51:14.573Z,99133.75
2022-11-16T18:53:42.964Z,99130.56
2022-11-16T18:56:10.424Z,99125.41
2022-11-16T18:58:54.093Z,99116.44
2022-11-16T19:01:23.555Z,99118.47
2022-11-16T19:03:52.673Z,99116.19
2022-11-16T19:06:22.808Z,99115.88
2022-11-16T19:08:56.010Z,99115.53
2022-11-16T19:11:24.414Z,99116.50
2022-11-16T19:13:53.892Z,99113.97
2022-11-16T19:16:21.936Z,99113.31
2022-11-16T19:18:49.965Z,99123.13
2022-11-16T19:21:18.533Z,99119.47
2022-11-16T19:23:49.688Z,99124.78
2022-11-16T19:26:19.388Z,99121.47
2022-11-16T19:28:49.122Z,99128.97
2022-11-16T19:31:18.922Z,99129.66
2022-11-16T19:33:47.151Z,99131.63
2022-11-16T19:36:16.740Z,99125.53
2022-11-16T19:38:47.833Z,99134.38
2022-11-16T19:41:17.281Z,99123.69
2022-11-16T19:43:45.191Z,99124.28
2022-11-16T19:46:15.139Z,99128.69
2022-11-16T19:48:43.765Z,99125.19
2022-11-16T19:51:13.499Z,99116.00
2022-11-16T19:53:41.703Z,99118.56
2022-11-16T19:56:12.770Z,99118.41
2022-11-16T19:58:42.297Z,99110.88
2022-11-16T20:01:12.024Z,99110.47
2022-11-16T20:03:40.288Z,99118.47
2022-11-16T20:06:09.734Z,99120.97
2022-11-16T20:08:39.333Z,99118.47
2022-11-16T20:11:16.503Z,99120.81
2022-11-16T20:13:44.650Z,99118.19
2022-11-16T20:16:15.936Z,99127.47
2022-11-16T20:18:44.490Z,99123.06
2022-11-16T20:21:16.796Z,99127.25
2022-11-16T20:23:45.577Z,99114.72
2022-11-16T20:26:15.306Z,99124.56
2022-11-16T20:28:44.720Z,99114.22
2022-11-16T20:31:14.870Z,99112.88
2022-11-16T20:33:49.609Z,99116.31
2022-11-16T20:36:17.077Z,99117.47
2022-11-16T20:38:45.167Z,99114.34
2022-11-16T20:41:16.021Z,99124.00
2022-11-16T20:43:45.359Z,99121.53
2022-11-16T20:46:14.641Z,99125.56
2022-11-16T20:48:43.899Z,99128.50
2022-11-16T20:51:14.041Z,99135.66
2022-11-16T20:53:41.881Z,99134.66
2022-11-16T20:56:10.964Z,99126.28
2022-11-16T20:58:40.652Z,99129.97
2022-11-16T21:01:10.745Z,99128.13
2022-11-16T21:03:38.849Z,99127.44
2022-11-16T21:06:07.166Z,99129.22
2022-11-16T21:08:35.825Z,99136.41
2022-11-16T21:11:10.236Z,99129.22
2022-11-16T21:13:39.770Z,99127.56
2022-11-16T21:16:09.769Z,99122.69
2022-11-16T21:18:40.770Z,99122.19
2022-11-16T21:21:10.861Z,99119.31
2022-11-16T21:23:39.898Z,99121.94
2022-11-16T21:26:11.043Z,99130.44
2022-11-16T21:28:41.709Z,99128.53
2022-11-16T21:31:12.103Z,99123.66
2022-11-16T21:33:40.467Z,99117.78
2022-11-16T21:36:11.010Z,99116.81
2022-11-16T21:38:39.112Z,99122.38
2022-11-16T21:41:07.450Z,99116.03
2022-11-16T21:43:36.314Z,99123.94
2022-11-16T21:46:07.645Z,99114.25
2022-11-16T21:48:36.458Z,99127.00
2022-11-16T21:51:05.753Z,99130.91
2022-11-16T21:53:34.409Z,99130.44
2022-11-16T21:56:03.192Z,99123.53
2022-11-16T21:58:31.622Z,99128.75
2022-11-16T22:01:00.521Z,99134.75
2022-11-16T22:03:31.592Z,99133.03
2022-11-16T22:06:00.992Z,99139.31
2022-11-16T22:08:28.861Z,99137.81
2022-11-16T22:10:56.313Z,99136.97
2022-11-16T22:13:24.215Z,99136.41
2022-11-16T22:15:51.617Z,99134.25
2022-11-16T22:18:19.127Z,99138.75
2022-11-16T22:20:49.787Z,99129.84
2022-11-16T22:23:21.532Z,99142.28
2022-11-16T22:25:50.735Z,99143.88
2022-11-16T22:28:20.963Z,99133.16
2022-11-16T22:30:51.984Z,99145.09
2022-11-16T22:33:19.836Z,99151.25
2022-11-16T22:35:49.040Z,99148.03
2022-11-16T22:38:16.553Z,99145.78
2022-11-16T22:40:49.202Z,99157.00
2022-11-16T22:43:16.734Z,99151.34
2022-11-16T22:45:44.481Z,99156.25
2022-11-16T22:48:11.989Z,99147.78
2022-11-16T22:50:39.782Z,99149.88
2022-11-16T22:53:08.533Z,99149.31
2022-11-16T22:55:37.134Z,99147.88
2022-11-16T22:58:05.152Z,99151.63
2022-11-16T23:00:37.531Z,99149.34
2022-11-16T23:03:08.150Z,99144.16
2022-11-16T23:05:36.032Z,99143.41
2022-11-16T23:08:03.836Z,99138.31
2022-11-16T23:10:33.121Z,99139.41
2022-11-16T23:13:00.633Z,99132.88
2022-11-16T23:15:28.740Z,99135.75
2022-11-16T23:17:56.153Z,99124.53
2022-11-16T23:20:24.066Z,99123.09
2022-11-16T23:22:51.347Z,99129.34
2022-11-16T23:25:19.405Z,99132.59
2022-11-16T23:27:55.601Z,99135.97
2022-11-16T23:30:25.503Z,99125.03
2022-11-16T23:32:53.271Z,99127.88
2022-11-16T23:35:21.411Z,99117.88
2022-11-16T23:37:55.576Z,99124.44
2022-11-16T23:40:25.412Z,99119.31
2022-11-16T23:42:55.032Z,99119.72
2022-11-16T23:45:22.861Z,99120.44
2022-11-16T23:47:50.316Z,99114.88
2022-11-16T23:50:18.299Z,99111.88
2022-11-16T23:52:45.727Z,99101.00
2022-11-16T23:55:13.569Z,99104.56
2022-11-16T23:57:41.176Z,99103.03
